createdAt,value
2023-10-26T00:00:46.086Z,7.03
2023-10-26T00:03:13.445Z,6.82
2023-10-26T00:05:41.076Z,7.63
2023-10-26T00:08:08.531Z,8.07
2023-10-26T00:10:36.004Z,6.03
2023-10-26T00:13:03.289Z,7.03
2023-10-26T00:15:30.720Z,7.20
2023-10-26T00:17:58.051Z,6.30
2023-10-26T00:20:25.336Z,7.03
2023-10-26T00:22:52.608Z,7.05
2023-10-26T00:25:20.068Z,7.38
2023-10-26T00:27:47.306Z,7.43
2023-10-26T00:30:14.856Z,6.53
2023-10-26T00:32:42.949Z,6.45
2023-10-26T00:35:10.410Z,8.13
2023-10-26T00:37:37.657Z,7.82
2023-10-26T00:40:05.289Z,6.72
2023-10-26T00:42:32.604Z,7.55
2023-10-26T00:44:59.934Z,7.45
2023-10-26T00:47:27.681Z,6.80
2023-10-26T00:49:55.751Z,7.60
2023-10-26T00:52:23.548Z,8.35
2023-10-26T00:54:50.961Z,7.25
2023-10-26T00:57:19.624Z,7.20
2023-10-26T00:59:47.645Z,8.15
2023-10-26T01:02:16.868Z,7.72
2023-10-26T01:04:44.553Z,7.53
2023-10-26T01:07:11.922Z,7.85
2023-10-26T01:09:39.256Z,8.38
2023-10-26T01:12:06.796Z,7.32
2023-10-26T01:14:34.282Z,7.88
2023-10-26T01:17:02.269Z,7.05
2023-10-26T01:19:44.194Z,7.65
2023-10-26T01:22:12.000Z,7.88
2023-10-26T01:24:40.305Z,7.45
2023-10-26T01:27:08.078Z,7.45
2023-10-26T01:29:35.509Z,8.15
2023-10-26T01:32:03.011Z,7.63
2023-10-26T01:34:30.301Z,7.68
2023-10-26T01:36:59.482Z,8.77
2023-10-26T01:39:27.020Z,8.20
2023-10-26T01:41:54.686Z,7.65
2023-10-26T01:44:23.789Z,8.20
2023-10-26T01:46:51.521Z,8.25
2023-10-26T01:49:18.908Z,8.63
2023-10-26T01:51:46.274Z,8.80
2023-10-26T01:54:13.654Z,7.70
2023-10-26T01:56:41.987Z,7.97
2023-10-26T01:59:10.145Z,7.75
2023-10-26T02:01:37.624Z,7.68
2023-10-26T02:04:05.037Z,7.15
2023-10-26T02:06:32.500Z,8.27
2023-10-26T02:08:59.926Z,8.85
2023-10-26T02:11:27.252Z,7.15
2023-10-26T02:13:54.759Z,7.78
2023-10-26T02:16:22.088Z,7.20
2023-10-26T02:18:49.634Z,8.27
2023-10-26T02:21:17.346Z,7.03
2023-10-26T02:23:45.871Z,7.68
2023-10-26T02:26:13.366Z,9.18
2023-10-26T02:28:40.674Z,8.43
2023-10-26T02:31:07.954Z,7.38
2023-10-26T02:33:35.391Z,7.85
2023-10-26T02:36:05.687Z,8.75
2023-10-26T02:38:33.242Z,8.20
2023-10-26T02:41:05.114Z,7.90
2023-10-26T02:43:32.690Z,7.72
2023-10-26T02:46:05.785Z,7.82
2023-10-26T02:48:33.758Z,8.98
2023-10-26T02:51:01.260Z,10.45
2023-10-26T02:53:28.651Z,8.13
2023-10-26T02:55:56.047Z,8.50
2023-10-26T02:58:23.390Z,7.70
2023-10-26T03:00:50.708Z,8.18
2023-10-26T03:03:18.069Z,9.23
2023-10-26T03:05:45.501Z,8.20
2023-10-26T03:08:13.084Z,8.57
2023-10-26T03:10:40.620Z,7.97
2023-10-26T03:13:08.259Z,8.93
2023-10-26T03:15:35.575Z,8.57
2023-10-26T03:18:03.032Z,9.07
2023-10-26T03:20:30.845Z,7.25
2023-10-26T03:22:58.161Z,8.48
2023-10-26T03:25:25.559Z,8.95
2023-10-26T03:27:52.862Z,8.57
2023-10-26T03:30:21.278Z,8.32
2023-10-26T03:32:48.670Z,7.97
2023-10-26T03:35:16.491Z,7.90
2023-10-26T03:37:45.083Z,9.27
2023-10-26T03:40:14.647Z,8.82
2023-10-26T03:42:43.543Z,8.63
2023-10-26T03:45:11.255Z,9.10
2023-10-26T03:47:40.796Z,7.68
2023-10-26T03:50:08.781Z,8.40
2023-10-26T03:52:36.226Z,8.30
2023-10-26T03:55:05.097Z,8.60
2023-10-26T03:57:34.654Z,8.68
2023-10-26T04:00:02.040Z,8.73
2023-10-26T04:02:39.089Z,7.57
2023-10-26T04:05:07.451Z,8.98
2023-10-26T04:07:35.271Z,8.70
2023-10-26T04:10:06.841Z,8.32
2023-10-26T04:12:34.285Z,9.52
2023-10-26T04:15:03.029Z,7.95
2023-10-26T04:17:30.553Z,8.60
2023-10-26T04:19:58.550Z,8.13
2023-10-26T04:22:28.370Z,8.18
2023-10-26T04:24:55.638Z,8.25
2023-10-26T04:27:23.122Z,8.73
2023-10-26T04:29:50.457Z,8.23
2023-10-26T04:32:17.798Z,9.25
2023-10-26T04:34:45.745Z,8.88
2023-10-26T04:37:13.336Z,9.13
2023-10-26T04:39:44.552Z,9.13
2023-10-26T04:42:13.683Z,8.73
2023-10-26T04:44:41.842Z,9.10
2023-10-26T04:47:09.611Z,8.32
2023-10-26T04:49:37.035Z,8.98
2023-10-26T04:52:04.455Z,9.30
2023-10-26T04:54:31.821Z,10.20
2023-10-26T04:56:59.102Z,8.50
2023-10-26T04:59:26.325Z,8.95
2023-10-26T05:01:53.826Z,9.65
2023-10-26T05:04:21.065Z,9.38
2023-10-26T05:06:48.582Z,9.85
2023-10-26T05:09:16.174Z,9.23
2023-10-26T05:11:43.543Z,9.13
2023-10-26T05:14:11.886Z,9.90
2023-10-26T05:16:39.318Z,9.32
2023-10-26T05:19:06.762Z,9.13
2023-10-26T05:21:34.060Z,8.65
2023-10-26T05:24:00.896Z,9.57
2023-10-26T05:26:28.441Z,9.10
2023-10-26T05:28:55.253Z,8.30
2023-10-26T05:31:22.097Z,8.57
2023-10-26T05:33:49.052Z,9.50
2023-10-26T05:36:16.513Z,9.55
2023-10-26T05:38:45.893Z,8.60
2023-10-26T05:41:14.160Z,9.75
2023-10-26T05:43:40.990Z,9.77
2023-10-26T05:46:07.929Z,8.63
2023-10-26T05:48:35.328Z,9.40
2023-10-26T05:51:02.382Z,9.90
2023-10-26T05:53:29.318Z,9.18
2023-10-26T05:55:58.596Z,9.13
2023-10-26T05:58:26.674Z,8.88
2023-10-26T06:00:53.751Z,8.95
2023-10-26T06:03:20.782Z,9.35
2023-10-26T06:05:48.693Z,9.05
2023-10-26T06:08:16.531Z,8.85
2023-10-26T06:10:43.705Z,9.60
2023-10-26T06:13:10.713Z,9.52
2023-10-26T06:15:37.917Z,9.50
2023-10-26T06:18:05.058Z,9.30
2023-10-26T06:20:32.008Z,10.65
2023-10-26T06:22:58.864Z,8.63
2023-10-26T06:25:27.625Z,9.02
2023-10-26T06:27:54.538Z,9.85
2023-10-26T06:30:21.586Z,9.80
2023-10-26T06:32:48.421Z,8.68
2023-10-26T06:35:15.378Z,9.50
2023-10-26T06:37:42.269Z,8.02
2023-10-26T06:40:09.924Z,9.30
2023-10-26T06:42:37.557Z,7.95
2023-10-26T06:45:06.620Z,8.18
2023-10-26T06:47:33.595Z,8.90
2023-10-26T06:50:00.562Z,7.05
2023-10-26T06:52:27.433Z,8.82
2023-10-26T06:54:54.244Z,8.27
2023-10-26T06:57:21.186Z,8.35
2023-10-26T06:59:48.066Z,9.10
2023-10-26T07:02:14.897Z,8.15
2023-10-26T07:04:41.903Z,8.45
2023-10-26T07:07:09.293Z,8.20
2023-10-26T07:09:37.694Z,7.85
2023-10-26T07:12:05.650Z,7.72
2023-10-26T07:14:32.785Z,8.25
2023-10-26T07:16:59.937Z,8.38
2023-10-26T07:19:26.756Z,8.80
2023-10-26T07:21:53.518Z,7.20
2023-10-26T07:24:20.342Z,7.60
2023-10-26T07:26:50.475Z,8.05
2023-10-26T07:29:17.368Z,8.55
2023-10-26T07:31:46.830Z,8.18
2023-10-26T07:34:14.713Z,7.65
2023-10-26T07:36:41.697Z,7.78
2023-10-26T07:39:44.725Z,7.38
2023-10-26T07:42:07.423Z,6.53
2023-10-26T07:44:37.732Z,5.97
2023-10-26T07:47:05.734Z,7.40
2023-10-26T07:49:32.501Z,7.22
2023-10-26T07:51:59.349Z,6.60
2023-10-26T07:54:26.406Z,7.28
2023-10-26T07:56:53.238Z,6.80
2023-10-26T07:59:20.110Z,7.03
2023-10-26T08:01:48.820Z,8.80
2023-10-26T08:04:15.808Z,6.85
2023-10-26T08:06:42.610Z,7.40
2023-10-26T08:09:09.500Z,6.82
2023-10-26T08:11:37.081Z,7.40
2023-10-26T08:14:04.079Z,6.88
2023-10-26T08:16:51.299Z,6.70
2023-10-26T08:19:18.490Z,6.57
2023-10-26T08:21:45.381Z,7.40
2023-10-26T08:24:12.221Z,5.80
2023-10-26T08:26:39.399Z,8.13
2023-10-26T08:29:16.060Z,6.75
2023-10-26T08:31:45.743Z,8.15
2023-10-26T08:34:12.656Z,7.65
2023-10-26T08:36:42.214Z,7.07
2023-10-26T08:39:11.543Z,6.85
2023-10-26T08:41:38.440Z,7.28
2023-10-26T08:44:05.551Z,5.97
2023-10-26T08:46:32.811Z,7.93
2023-10-26T08:49:03.435Z,8.10
2023-10-26T08:51:30.366Z,7.28
2023-10-26T08:53:58.375Z,7.80
2023-10-26T08:56:25.552Z,7.82
2023-10-26T08:59:04.048Z,7.05
2023-10-26T09:01:31.024Z,8.30
2023-10-26T09:03:57.918Z,8.13
2023-10-26T09:06:24.742Z,7.22
2023-10-26T09:09:04.698Z,7.35
2023-10-26T09:11:31.574Z,7.57
2023-10-26T09:14:12.826Z,8.52
2023-10-26T09:16:41.615Z,8.57
2023-10-26T09:19:09.131Z,7.97
2023-10-26T09:21:49.265Z,8.63
2023-10-26T09:24:25.993Z,8.15
2023-10-26T09:26:58.039Z,8.15
2023-10-26T09:29:41.191Z,8.82
2023-10-26T09:32:09.717Z,9.93
2023-10-26T09:34:44.661Z,9.88
2023-10-26T09:37:12.892Z,8.70
2023-10-26T09:39:42.588Z,8.07
2023-10-26T09:42:13.065Z,8.20
2023-10-26T09:44:40.176Z,8.77
2023-10-26T09:47:10.000Z,9.63
2023-10-26T09:49:37.055Z,8.48
2023-10-26T09:52:04.330Z,8.88
2023-10-26T09:54:37.238Z,7.53
2023-10-26T09:57:33.390Z,6.90
2023-10-26T10:00:00.816Z,6.53
2023-10-26T10:02:27.842Z,7.03
2023-10-26T10:04:54.618Z,8.40
2023-10-26T10:07:45.089Z,7.30
2023-10-26T10:10:13.898Z,6.97
2023-10-26T10:12:41.538Z,7.32
2023-10-26T10:17:45.857Z,7.35
2023-10-26T10:20:18.498Z,7.10
2023-10-26T10:22:45.621Z,6.83
2023-10-26T10:25:13.570Z,7.00
2023-10-26T10:27:41.754Z,6.03
2023-10-26T10:30:09.727Z,7.07
2023-10-26T10:32:46.088Z,8.35
2023-10-26T10:35:22.469Z,6.82
2023-10-26T10:38:14.493Z,5.65
2023-10-26T10:40:42.322Z,5.70
2023-10-26T10:43:09.784Z,5.88
2023-10-26T10:45:36.757Z,4.72
2023-10-26T10:48:06.172Z,5.50
2023-10-26T10:50:33.112Z,5.22
2023-10-26T10:53:00.032Z,5.82
2023-10-26T10:55:31.697Z,6.13
2023-10-26T10:58:03.134Z,6.30
2023-10-26T11:00:44.286Z,4.97
2023-10-26T11:03:18.735Z,5.90
2023-10-26T11:05:45.888Z,5.10
2023-10-26T11:08:12.831Z,5.13
2023-10-26T11:10:40.047Z,4.80
2023-10-26T11:13:07.078Z,4.68
2023-10-26T11:15:35.843Z,4.68
2023-10-26T11:18:04.721Z,5.68
2023-10-26T11:20:41.906Z,5.65
2023-10-26T11:23:10.487Z,5.72
2023-10-26T11:25:37.746Z,5.40
2023-10-26T11:28:05.519Z,5.07
2023-10-26T11:30:49.807Z,4.55
2023-10-26T11:33:43.344Z,4.88
2023-10-26T11:36:12.099Z,5.18
2023-10-26T11:38:52.243Z,5.70
2023-10-26T11:41:26.753Z,4.95
2023-10-26T11:43:53.590Z,4.70
2023-10-26T11:46:33.528Z,4.80
2023-10-26T11:49:01.813Z,4.22
2023-10-26T11:51:29.389Z,4.43
2023-10-26T11:53:58.002Z,4.68
2023-10-26T11:56:25.024Z,4.50
2023-10-26T11:58:51.867Z,4.97
2023-10-26T12:01:18.680Z,5.45
2023-10-26T12:03:47.281Z,4.20
2023-10-26T12:06:14.456Z,4.43
2023-10-26T12:08:41.555Z,5.30
2023-10-26T12:11:08.410Z,4.57
2023-10-26T12:13:36.784Z,4.60
2023-10-26T12:16:04.006Z,4.07
2023-10-26T12:18:31.043Z,4.82
2023-10-26T12:20:57.964Z,5.57
2023-10-26T12:23:24.849Z,4.40
2023-10-26T12:25:51.751Z,4.53
2023-10-26T12:28:23.837Z,4.55
2023-10-26T12:30:54.616Z,3.75
2023-10-26T12:33:21.691Z,4.43
2023-10-26T12:35:49.177Z,4.70
2023-10-26T12:38:16.404Z,4.28
2023-10-26T12:40:43.334Z,3.60
2023-10-26T12:43:10.354Z,4.57
2023-10-26T12:45:38.134Z,3.80
2023-10-26T12:48:05.290Z,3.70
2023-10-26T12:50:32.181Z,3.47
2023-10-26T12:52:59.088Z,4.25
2023-10-26T12:55:26.103Z,2.72
2023-10-26T12:57:53.987Z,3.70
2023-10-26T13:00:21.703Z,3.83
2023-10-26T13:02:48.606Z,4.15
2023-10-26T13:05:15.562Z,3.78
2023-10-26T13:07:42.418Z,4.20
2023-10-26T13:10:09.588Z,4.00
2023-10-26T13:12:37.740Z,3.97
2023-10-26T13:15:05.966Z,4.03
2023-10-26T13:17:34.072Z,3.72
2023-10-26T13:20:01.405Z,5.05
2023-10-26T13:22:28.328Z,4.72
2023-10-26T13:24:55.121Z,4.57
2023-10-26T13:27:22.207Z,4.55
2023-10-26T13:29:50.113Z,4.25
2023-10-26T13:32:17.035Z,3.33
2023-10-26T13:34:44.202Z,4.47
2023-10-26T13:37:11.138Z,3.67
2023-10-26T13:39:38.580Z,4.45
2023-10-26T13:42:05.679Z,4.03
2023-10-26T13:44:32.493Z,4.03
2023-10-26T13:46:59.242Z,4.70
2023-10-26T13:49:26.002Z,3.28
2023-10-26T13:51:53.092Z,3.60
2023-10-26T13:54:19.830Z,3.17
2023-10-26T13:56:46.960Z,3.60
2023-10-26T13:59:13.906Z,3.55
2023-10-26T14:01:40.947Z,3.88
2023-10-26T14:04:07.876Z,3.10
2023-10-26T14:06:34.836Z,4.15
2023-10-26T14:09:02.235Z,3.15
2023-10-26T14:11:30.843Z,3.65
2023-10-26T14:13:58.397Z,3.08
2023-10-26T14:16:27.224Z,3.13
2023-10-26T14:18:55.227Z,3.63
2023-10-26T14:21:22.734Z,3.00
2023-10-26T14:23:49.608Z,3.45
2023-10-26T14:26:16.789Z,2.92
2023-10-26T14:28:45.304Z,3.22
2023-10-26T14:31:13.281Z,2.63
2023-10-26T14:33:40.178Z,3.10
2023-10-26T14:36:07.336Z,2.85
2023-10-26T14:38:34.345Z,3.30
2023-10-26T14:41:02.017Z,2.65
2023-10-26T14:43:29.603Z,3.08
2023-10-26T14:45:56.610Z,2.67
2023-10-26T14:48:23.609Z,3.10
2023-10-26T14:50:58.860Z,2.78
2023-10-26T14:53:26.454Z,2.58
2023-10-26T14:55:55.279Z,2.60
2023-10-26T14:58:23.263Z,2.17
2023-10-26T15:00:51.557Z,2.55
2023-10-26T15:03:18.439Z,2.33
2023-10-26T15:05:45.954Z,1.95
2023-10-26T15:08:13.020Z,2.50
2023-10-26T15:10:48.590Z,2.22
2023-10-26T15:13:16.380Z,2.13
2023-10-26T15:15:43.987Z,1.92
2023-10-26T15:18:11.347Z,2.20
2023-10-26T15:20:38.289Z,1.90
2023-10-26T15:23:05.137Z,2.95
2023-10-26T15:25:35.745Z,2.13
2023-10-26T15:28:02.576Z,2.17
2023-10-26T15:30:29.432Z,2.38
2023-10-26T15:32:56.334Z,2.40
2023-10-26T15:35:23.188Z,2.50
2023-10-26T15:37:50.851Z,3.20
2023-10-26T15:40:17.736Z,4.20
2023-10-26T15:42:44.638Z,3.53
2023-10-26T15:45:12.610Z,3.60
2023-10-26T15:47:39.827Z,2.97
2023-10-26T15:50:07.241Z,4.15
2023-10-26T15:52:34.291Z,4.43
2023-10-26T15:55:01.081Z,3.65
2023-10-26T15:57:27.956Z,3.95
2023-10-26T15:59:54.793Z,3.83
2023-10-26T16:02:21.631Z,3.33
2023-10-26T16:04:50.608Z,2.08
2023-10-26T16:07:17.488Z,2.83
2023-10-26T16:09:45.390Z,2.22
2023-10-26T16:12:12.362Z,3.28
2023-10-26T16:14:39.094Z,2.38
2023-10-26T16:17:06.005Z,2.78
2023-10-26T16:19:32.913Z,2.35
2023-10-26T16:21:59.697Z,2.28
2023-10-26T16:24:26.461Z,2.47
2023-10-26T16:26:53.303Z,3.20
2023-10-26T16:29:20.022Z,3.33
2023-10-26T16:31:47.132Z,3.22
2023-10-26T16:34:14.184Z,3.90
2023-10-26T16:36:41.008Z,3.25
2023-10-26T16:39:07.856Z,5.05
2023-10-26T16:41:34.653Z,4.38
2023-10-26T16:44:01.424Z,4.43
2023-10-26T16:46:28.379Z,4.00
2023-10-26T16:48:56.876Z,4.70
2023-10-26T16:51:23.749Z,4.15
2023-10-26T16:53:50.561Z,5.15
2023-10-26T16:56:17.355Z,4.75
2023-10-26T16:58:44.076Z,5.13
2023-10-26T17:01:11.727Z,4.93
2023-10-26T17:03:39.265Z,4.50
2023-10-26T17:06:06.414Z,4.60
2023-10-26T17:08:33.278Z,4.18
2023-10-26T17:11:00.382Z,5.05
2023-10-26T17:13:27.308Z,3.70
2023-10-26T17:15:54.933Z,3.75
2023-10-26T17:18:22.836Z,3.75
2023-10-26T17:20:50.430Z,3.65
2023-10-26T17:23:17.337Z,3.35
2023-10-26T17:25:44.270Z,3.33
2023-10-26T17:28:11.317Z,2.67
2023-10-26T17:30:38.329Z,2.88
2023-10-26T17:33:06.828Z,3.10
2023-10-26T17:35:43.648Z,3.08
2023-10-26T17:38:11.244Z,2.90
2023-10-26T17:40:38.282Z,3.17
2023-10-26T17:43:07.077Z,4.07
2023-10-26T17:45:34.505Z,3.47
2023-10-26T17:48:01.905Z,3.10
2023-10-26T17:50:29.057Z,3.75
2023-10-26T17:52:56.043Z,2.70
2023-10-26T17:55:23.159Z,2.90
2023-10-26T17:57:50.285Z,2.90
2023-10-26T18:00:20.151Z,3.47
2023-10-26T18:02:47.200Z,3.40
2023-10-26T18:05:14.607Z,2.85
2023-10-26T18:07:41.464Z,3.72
2023-10-26T18:10:09.391Z,3.20
2023-10-26T18:12:37.038Z,4.00
2023-10-26T18:15:06.724Z,3.90
2023-10-26T18:17:34.144Z,4.70
2023-10-26T18:20:01.111Z,4.72
2023-10-26T18:22:42.183Z,4.03
2023-10-26T18:25:11.298Z,4.00
2023-10-26T18:27:38.677Z,4.50
2023-10-26T18:30:06.608Z,3.78
2023-10-26T18:32:34.077Z,5.07
2023-10-26T18:35:01.350Z,4.95
2023-10-26T18:37:29.365Z,4.53
2023-10-26T18:39:58.027Z,6.00
2023-10-26T18:42:25.682Z,4.63
2023-10-26T18:44:53.532Z,4.50
2023-10-26T18:47:20.955Z,5.03
2023-10-26T18:49:49.718Z,5.03
2023-10-26T18:52:17.202Z,4.75
2023-10-26T18:54:44.525Z,4.90
2023-10-26T18:57:11.911Z,4.57
2023-10-26T18:59:39.582Z,4.32
2023-10-26T19:02:07.425Z,5.50
2023-10-26T19:04:35.055Z,5.22
2023-10-26T19:07:18.388Z,4.35
2023-10-26T19:09:46.125Z,5.03
2023-10-26T19:12:13.827Z,5.03
2023-10-26T19:14:41.231Z,10.63
2023-10-26T19:17:10.588Z,4.88
2023-10-26T19:19:38.154Z,4.30
2023-10-26T19:22:05.913Z,3.97
2023-10-26T19:24:33.186Z,4.80
2023-10-26T19:27:00.477Z,4.13
2023-10-26T19:29:28.049Z,4.80
2023-10-26T19:31:55.459Z,4.53
2023-10-26T19:34:22.820Z,4.88
2023-10-26T19:36:50.177Z,4.40
2023-10-26T19:39:17.363Z,5.15
2023-10-26T19:41:44.606Z,5.25
2023-10-26T19:44:13.969Z,4.45
2023-10-26T19:46:41.263Z,4.20
2023-10-26T19:49:08.715Z,4.05
2023-10-26T19:51:36.021Z,4.03
2023-10-26T19:54:04.782Z,4.18
2023-10-26T19:56:32.066Z,3.95
2023-10-26T19:58:59.380Z,4.10
2023-10-26T20:01:26.802Z,4.53
2023-10-26T20:03:54.313Z,4.00
2023-10-26T20:06:22.264Z,4.75
2023-10-26T20:08:49.570Z,4.40
2023-10-26T20:11:16.898Z,3.63
2023-10-26T20:13:46.070Z,4.20
2023-10-26T20:16:13.503Z,3.90
2023-10-26T20:18:41.540Z,5.00
2023-10-26T20:21:10.363Z,4.82
2023-10-26T20:23:37.755Z,4.78
2023-10-26T20:26:05.100Z,5.15
2023-10-26T20:28:32.371Z,4.78
2023-10-26T20:30:59.696Z,5.57
2023-10-26T20:33:27.101Z,5.28
2023-10-26T20:35:54.462Z,4.32
2023-10-26T20:38:22.043Z,4.93
2023-10-26T20:40:50.907Z,4.15
2023-10-26T20:43:18.299Z,4.20
2023-10-26T20:45:47.501Z,4.68
2023-10-26T20:48:14.878Z,5.22
2023-10-26T20:50:42.572Z,4.70
2023-10-26T20:53:09.893Z,4.18
2023-10-26T20:55:37.130Z,4.13
2023-10-26T20:58:04.464Z,5.20
2023-10-26T21:00:31.889Z,4.35
2023-10-26T21:02:59.160Z,5.57
2023-10-26T21:05:26.602Z,4.07
2023-10-26T21:07:54.287Z,3.80
2023-10-26T21:10:21.754Z,5.78
2023-10-26T21:12:49.128Z,4.18
2023-10-26T21:15:16.466Z,4.25
2023-10-26T21:17:43.862Z,4.43
2023-10-26T21:20:12.518Z,4.65
2023-10-26T21:22:39.790Z,4.35
2023-10-26T21:25:07.409Z,3.92
2023-10-26T21:27:36.715Z,4.47
2023-10-26T21:30:04.490Z,6.70
2023-10-26T21:32:31.957Z,4.15
2023-10-26T21:34:59.542Z,3.85
2023-10-26T21:37:26.820Z,3.53
2023-10-26T21:39:54.190Z,4.03
2023-10-26T21:42:23.208Z,4.93
2023-10-26T21:44:52.506Z,3.85
2023-10-26T21:47:19.742Z,5.13
2023-10-26T21:49:47.038Z,3.78
2023-10-26T21:52:14.506Z,3.67
2023-10-26T21:54:42.475Z,4.75
2023-10-26T21:57:09.698Z,4.30
2023-10-26T21:59:36.987Z,4.10
2023-10-26T22:02:07.727Z,5.03
2023-10-26T22:04:35.525Z,4.18
2023-10-26T22:07:03.576Z,4.78
2023-10-26T22:09:33.659Z,4.55
2023-10-26T22:12:03.414Z,4.03
2023-10-26T22:14:33.246Z,3.67
2023-10-26T22:17:00.760Z,3.67
2023-10-26T22:19:28.050Z,4.25
2023-10-26T22:21:55.411Z,3.10
2023-10-26T22:24:22.731Z,3.75
2023-10-26T22:26:50.094Z,3.80
2023-10-26T22:29:29.450Z,3.80
2023-10-26T22:31:58.929Z,3.67
2023-10-26T22:34:26.351Z,3.40
2023-10-26T22:36:53.752Z,3.03
2023-10-26T22:39:21.087Z,4.28
2023-10-26T22:41:49.039Z,3.30
2023-10-26T22:44:16.315Z,3.22
2023-10-26T22:46:43.589Z,3.80
2023-10-26T22:49:11.146Z,3.58
2023-10-26T22:51:38.750Z,2.78
2023-10-26T22:54:06.079Z,4.38
2023-10-26T22:56:33.398Z,3.15
2023-10-26T22:59:00.719Z,2.78
2023-10-26T23:01:28.008Z,3.03
2023-10-26T23:03:55.396Z,3.42
2023-10-26T23:06:23.856Z,3.05
2023-10-26T23:08:51.287Z,3.50
2023-10-26T23:11:18.513Z,3.85
2023-10-26T23:13:45.799Z,3.53
2023-10-26T23:16:13.072Z,3.53
2023-10-26T23:18:40.582Z,3.28
2023-10-26T23:21:07.978Z,2.72
2023-10-26T23:23:39.483Z,3.22
2023-10-26T23:26:10.157Z,3.03
2023-10-26T23:28:38.049Z,2.70
2023-10-26T23:31:12.183Z,3.25
2023-10-26T23:33:40.173Z,2.70
2023-10-26T23:36:08.227Z,2.58
2023-10-26T23:38:39.000Z,3.33
2023-10-26T23:41:07.181Z,3.22
2023-10-26T23:43:35.076Z,3.47
2023-10-26T23:46:05.731Z,3.50
2023-10-26T23:48:33.262Z,2.88
2023-10-26T23:51:00.569Z,2.65
2023-10-26T23:53:28.358Z,2.40
2023-10-26T23:55:55.721Z,3.20
2023-10-26T23:58:23.418Z,2.88
